Airfield :
LOGIN :

Register | Disclaimer

   EN    FR    IT 

 










Legend :    VFR   Marginal VFR   IFR   Intensive IFR   Very Intensive IFR
Visi :
Ceiling :
>= 8 km
>= 3000ft
5 to 8 km
1000 to 3000 ft
1500m to 5 km
500 to 1000 ft
800 to 1500m
200 to 500 ft
< 800m
< 200 ft
Symbols :   Thunderstorms  Fog  Heavy snow  Heavy precipitations  Wind > 20 kt
SIGMETs :     Misc.  Thunderstorms  Icing  Turbulence  Mountain Waves  Volcanic Ashes







- Airport Elevation : 5600 ft
- IATA code : SMV


LSZS - Samedan

CURRENT METAR :
  • 241020Z 03007KT 9999 SCT060 09/01 Q1023 RMK J

EXPIRED METARs :
  • 240950Z VRB02KT 9999 BKN050 09/02 Q1023 RMK I
  • 240920Z VRB02KT 9999 BKN048 08/04 Q1023 RMK H
  • 240850Z 14004KT 100V170 9999 FEW005 SCT040 07/04 Q1023 RMK G
  • 240820Z VRB02KT 9999 FEW005 SCT050 07/04 Q1023 RMK F
  • 240750Z 02007KT 9999 -RA FEW031 05/04 Q1023 RMK E

TAF TAF LSZS
Valid from the 24 at 09:00 until the 24 at 18:00 UTC


240825Z 2409/2418 02007KT 9999 FEW030 TX12/2413Z
PROB30
TEMPO 2409/2418 SHRA
ATIS : +41 81 834 93 24
No reported NOTAMs for that airfield.



MET'MAP, your aeronautical weather chart ! - Copyright ORBIFLY December 2007 - Disclaimer

ORBIFLY MET'MAP TEAM :

Programming & Development : Alexandra Zaïnal
Concept & Development : Baudouin d'Aumeries
Co-Development & Prog : Marc-Olivier Méhu
Technical & hardware support : Manuel Goepfert

Contact : metmap@orbifly.com




SOURCES & CREDITS :

   NOAA